createdAt,value
2018-06-28T00:01:21.576Z,19.00
2018-06-28T00:03:49.980Z,18.60
2018-06-28T00:06:18.304Z,18.50
2018-06-28T00:08:46.663Z,18.80
2018-06-28T00:11:14.961Z,18.90
2018-06-28T00:13:43.730Z,18.80
2018-06-28T00:16:12.375Z,18.80
2018-06-28T00:18:40.788Z,18.80
2018-06-28T00:21:09.038Z,18.70
2018-06-28T00:23:37.315Z,18.70
2018-06-28T00:26:06.543Z,18.70
2018-06-28T00:28:34.840Z,18.70
2018-06-28T00:31:03.112Z,18.70
2018-06-28T00:33:31.347Z,18.60
2018-06-28T00:35:59.638Z,18.70
2018-06-28T00:38:28.176Z,18.60
2018-06-28T00:40:56.490Z,18.80
2018-06-28T00:43:24.703Z,18.80
2018-06-28T00:45:52.942Z,18.90
2018-06-28T00:48:21.993Z,18.60
2018-06-28T00:50:50.346Z,18.70
2018-06-28T00:53:19.011Z,18.60
2018-06-28T00:55:47.249Z,18.60
2018-06-28T00:58:15.580Z,18.80
2018-06-28T01:00:44.584Z,18.80
2018-06-28T01:03:13.059Z,18.70
2018-06-28T01:08:09.370Z,18.70
2018-06-28T01:10:37.726Z,18.60
2018-06-28T01:13:06.324Z,18.60
2018-06-28T01:15:35.425Z,18.50
2018-06-28T01:18:03.710Z,18.70
2018-06-28T01:20:31.997Z,18.60
2018-06-28T01:23:00.285Z,18.70
2018-06-28T01:25:29.058Z,18.80
2018-06-28T01:27:57.328Z,18.90
2018-06-28T01:30:25.626Z,18.90
2018-06-28T01:32:53.815Z,19.00
2018-06-28T01:35:22.022Z,19.00
2018-06-28T01:37:50.339Z,19.00
2018-06-28T01:40:18.814Z,18.90
2018-06-28T01:42:58.649Z,19.10
2018-06-28T01:45:27.308Z,18.90
2018-06-28T01:47:55.694Z,18.90
2018-06-28T01:50:24.029Z,18.70
2018-06-28T01:52:52.781Z,18.70
2018-06-28T01:55:21.935Z,18.70
2018-06-28T01:57:50.242Z,18.60
2018-06-28T02:00:18.530Z,18.60
2018-06-28T02:02:46.797Z,18.60
2018-06-28T02:05:15.011Z,18.60
2018-06-28T02:07:43.920Z,18.50
2018-06-28T02:10:12.170Z,18.50
2018-06-28T02:12:40.419Z,18.30
2018-06-28T02:15:08.730Z,18.30
2018-06-28T02:17:36.976Z,18.30
2018-06-28T02:20:05.857Z,18.10
2018-06-28T02:22:34.706Z,18.30
2018-06-28T02:25:02.899Z,18.20
2018-06-28T02:27:31.196Z,18.20
2018-06-28T02:29:59.404Z,18.10
2018-06-28T02:32:28.291Z,18.20
2018-06-28T02:34:56.539Z,18.30
2018-06-28T02:37:24.770Z,18.30
2018-06-28T02:39:52.943Z,18.50
2018-06-28T02:42:21.199Z,18.40
2018-06-28T02:44:49.654Z,18.40
2018-06-28T02:47:17.854Z,18.50
2018-06-28T02:49:46.051Z,18.20
2018-06-28T02:52:14.286Z,18.40
2018-06-28T02:54:42.577Z,18.50
2018-06-28T02:57:10.762Z,18.50
2018-06-28T02:59:39.016Z,18.50
2018-06-28T03:02:07.399Z,18.50
2018-06-28T03:04:36.257Z,18.60
2018-06-28T03:07:05.237Z,18.50
2018-06-28T03:09:33.790Z,18.10
2018-06-28T03:12:02.310Z,18.30
2018-06-28T03:14:30.576Z,18.30
2018-06-28T03:16:59.928Z,18.40
2018-06-28T03:19:28.344Z,18.50
2018-06-28T03:21:56.592Z,18.20
2018-06-28T03:24:24.835Z,18.20
2018-06-28T03:26:53.202Z,18.10
2018-06-28T03:29:21.418Z,18.10
2018-06-28T03:31:50.379Z,18.00
2018-06-28T03:34:19.091Z,18.00
2018-06-28T03:36:47.283Z,17.90
2018-06-28T03:39:15.478Z,17.90
2018-06-28T03:41:44.415Z,17.80
2018-06-28T03:44:14.049Z,18.00
2018-06-28T03:46:42.749Z,18.00
2018-06-28T03:49:12.304Z,17.80
2018-06-28T03:51:40.594Z,17.90
2018-06-28T03:54:09.094Z,17.90
2018-06-28T03:56:37.886Z,18.00
2018-06-28T03:59:07.316Z,17.90
2018-06-28T04:01:36.311Z,18.10
2018-06-28T04:04:04.604Z,18.10
2018-06-28T04:06:32.941Z,18.30
2018-06-28T04:09:01.352Z,18.40
2018-06-28T04:11:29.567Z,18.60
2018-06-28T04:13:57.887Z,18.70
2018-06-28T04:16:26.192Z,18.80
2018-06-28T04:18:55.616Z,18.90
2018-06-28T04:21:23.824Z,18.80
2018-06-28T04:23:52.093Z,19.00
2018-06-28T04:28:49.628Z,19.20
2018-06-28T04:31:17.822Z,19.30
2018-06-28T04:33:47.331Z,19.50
2018-06-28T04:36:15.607Z,19.60
2018-06-28T04:38:44.050Z,19.50
2018-06-28T04:41:12.365Z,19.50
2018-06-28T04:43:40.713Z,19.60
2018-06-28T04:46:08.996Z,19.70
2018-06-28T04:48:37.231Z,19.60
2018-06-28T04:51:05.574Z,19.40
2018-06-28T04:53:33.950Z,19.60
2018-06-28T04:56:02.164Z,19.80
2018-06-28T04:58:30.399Z,20.10
2018-06-28T05:00:58.669Z,20.30
2018-06-28T05:03:27.092Z,20.40
2018-06-28T05:05:55.371Z,20.60
2018-06-28T05:08:23.585Z,20.60
2018-06-28T05:10:51.851Z,20.50
2018-06-28T05:13:20.251Z,20.40
2018-06-28T05:15:48.772Z,20.30
2018-06-28T05:18:17.107Z,20.30
2018-06-28T05:20:45.398Z,20.50
2018-06-28T05:23:14.420Z,20.30
2018-06-28T05:25:43.231Z,20.40
2018-06-28T05:28:11.551Z,20.70
2018-06-28T05:30:39.767Z,20.70
2018-06-28T05:33:08.037Z,20.90
2018-06-28T05:36:03.781Z,20.90
2018-06-28T05:38:33.362Z,21.10
2018-06-28T05:41:01.638Z,21.10
2018-06-28T05:43:29.851Z,21.20
2018-06-28T05:45:58.062Z,21.30
2018-06-28T05:48:26.565Z,21.40
2018-06-28T05:50:54.719Z,21.60
2018-06-28T05:53:22.949Z,21.80
2018-06-28T05:55:52.035Z,22.00
2018-06-28T05:58:20.772Z,22.20
2018-06-28T06:00:49.082Z,22.40
2018-06-28T06:03:17.311Z,22.60
2018-06-28T06:05:45.542Z,22.60
2018-06-28T06:08:14.623Z,22.30
2018-06-28T06:10:43.948Z,22.40
2018-06-28T06:13:12.259Z,22.50
2018-06-28T06:15:40.471Z,22.50
2018-06-28T06:18:08.703Z,22.40
2018-06-28T06:20:36.920Z,22.20
2018-06-28T06:23:05.343Z,22.40
2018-06-28T06:25:33.639Z,22.30
2018-06-28T06:28:02.011Z,22.30
2018-06-28T06:30:30.187Z,22.60
2018-06-28T06:32:59.219Z,22.60
2018-06-28T06:35:28.555Z,22.60
2018-06-28T06:37:57.019Z,22.40
2018-06-28T06:40:25.285Z,22.40
2018-06-28T06:42:53.487Z,22.60
2018-06-28T06:45:21.684Z,22.70
2018-06-28T06:47:50.430Z,22.80
2018-06-28T06:50:18.772Z,22.70
2018-06-28T06:52:46.962Z,23.00
2018-06-28T06:55:15.150Z,23.20
2018-06-28T06:57:43.684Z,23.10
2018-06-28T07:00:12.402Z,23.20
2018-06-28T07:02:40.630Z,23.40
2018-06-28T07:05:08.887Z,23.70
2018-06-28T07:07:37.108Z,23.90
2018-06-28T07:10:05.618Z,23.90
2018-06-28T07:12:34.001Z,24.20
2018-06-28T07:15:02.310Z,24.40
2018-06-28T07:17:30.579Z,24.50
2018-06-28T07:19:59.636Z,24.80
2018-06-28T07:22:28.887Z,25.20
2018-06-28T07:24:57.336Z,25.30
2018-06-28T07:27:25.552Z,25.50
2018-06-28T07:29:53.727Z,25.80
2018-06-28T07:32:22.008Z,25.90
2018-06-28T07:34:50.371Z,26.20
2018-06-28T07:37:18.564Z,26.70
2018-06-28T07:39:46.871Z,26.90
2018-06-28T07:42:15.059Z,26.90
2018-06-28T07:44:43.571Z,26.90
2018-06-28T07:47:12.103Z,26.70
2018-06-28T07:49:40.338Z,26.50
2018-06-28T07:52:08.575Z,26.50
2018-06-28T07:54:36.779Z,26.50
2018-06-28T07:57:05.564Z,26.90
2018-06-28T07:59:34.130Z,27.20
2018-06-28T08:02:02.362Z,27.20
2018-06-28T08:04:30.602Z,27.30
2018-06-28T08:06:59.000Z,27.30
2018-06-28T08:09:27.252Z,26.90
2018-06-28T08:11:55.717Z,26.60
2018-06-28T08:14:23.926Z,26.60
2018-06-28T08:16:52.250Z,26.80
2018-06-28T08:19:20.526Z,26.70
2018-06-28T08:21:48.886Z,26.80
2018-06-28T08:24:17.143Z,26.70
2018-06-28T08:26:47.152Z,26.60
2018-06-28T08:29:15.367Z,26.70
2018-06-28T08:31:43.799Z,26.70
2018-06-28T08:34:12.276Z,26.80
2018-06-28T08:36:40.530Z,26.90
2018-06-28T08:39:09.620Z,26.80
2018-06-28T08:41:37.876Z,26.20
2018-06-28T08:44:06.486Z,26.20
2018-06-28T08:46:35.458Z,26.20
2018-06-28T08:49:03.997Z,26.20
2018-06-28T08:51:32.154Z,26.10
2018-06-28T08:54:00.419Z,26.10
2018-06-28T08:56:28.805Z,25.90
2018-06-28T08:58:57.195Z,25.90
2018-06-28T09:01:25.578Z,25.80
2018-06-28T09:03:53.830Z,25.50
2018-06-28T09:06:22.017Z,25.20
2018-06-28T09:08:50.424Z,25.10
2018-06-28T09:11:18.667Z,25.50
2018-06-28T09:13:46.892Z,25.70
2018-06-28T09:16:15.097Z,26.20
2018-06-28T09:18:44.195Z,26.60
2018-06-28T09:21:12.454Z,26.80
2018-06-28T09:23:40.657Z,27.00
2018-06-28T09:26:08.867Z,27.50
2018-06-28T09:28:37.116Z,27.50
2018-06-28T09:31:05.969Z,27.40
2018-06-28T09:33:35.014Z,27.50
2018-06-28T09:36:03.202Z,27.50
2018-06-28T09:38:31.428Z,27.50
2018-06-28T09:40:59.685Z,27.50
2018-06-28T09:43:28.030Z,27.40
2018-06-28T09:45:56.436Z,27.30
2018-06-28T09:48:24.607Z,27.30
2018-06-28T09:50:52.852Z,27.00
2018-06-28T09:53:21.282Z,27.20
2018-06-28T09:55:49.644Z,27.40
2018-06-28T09:58:17.887Z,27.60
2018-06-28T10:00:46.103Z,27.50
2018-06-28T10:03:15.315Z,27.30
2018-06-28T10:05:43.577Z,27.20
2018-06-28T10:10:40.961Z,26.70
2018-06-28T10:13:09.212Z,26.80
2018-06-28T10:15:37.487Z,26.80
2018-06-28T10:18:05.960Z,26.70
2018-06-28T10:20:34.132Z,26.70
2018-06-28T10:23:02.336Z,26.80
2018-06-28T10:25:30.533Z,27.00
2018-06-28T10:27:58.940Z,27.20
2018-06-28T10:30:27.257Z,27.50
2018-06-28T10:32:55.762Z,28.00
2018-06-28T10:35:23.967Z,28.00
2018-06-28T10:37:52.176Z,27.80
2018-06-28T10:40:20.999Z,27.70
2018-06-28T10:42:49.828Z,27.70
2018-06-28T10:45:18.032Z,27.80
2018-06-28T10:47:46.324Z,27.70
2018-06-28T10:50:14.634Z,27.90
2018-06-28T10:52:43.235Z,27.60
2018-06-28T10:55:11.796Z,27.70
2018-06-28T10:57:39.987Z,27.70
2018-06-28T11:00:08.211Z,27.50
2018-06-28T11:02:37.504Z,27.40
2018-06-28T11:05:06.756Z,27.30
2018-06-28T11:07:35.303Z,27.10
2018-06-28T11:10:03.767Z,27.50
2018-06-28T11:12:32.003Z,27.50
2018-06-28T11:15:00.268Z,27.80
2018-06-28T11:17:28.497Z,27.80
2018-06-28T11:19:56.980Z,28.20
2018-06-28T11:22:25.414Z,28.80
2018-06-28T11:24:53.643Z,29.20
2018-06-28T11:27:22.126Z,29.00
2018-06-28T11:29:50.963Z,29.10
2018-06-28T11:32:19.428Z,29.10
2018-06-28T11:34:47.619Z,29.30
2018-06-28T11:37:15.822Z,29.90
2018-06-28T11:39:44.156Z,30.50
2018-06-28T11:42:12.503Z,31.00
2018-06-28T11:44:40.723Z,31.10
2018-06-28T11:47:08.955Z,31.30
2018-06-28T11:49:38.067Z,31.10
2018-06-28T11:54:35.656Z,30.60
2018-06-28T11:57:03.912Z,29.90
2018-06-28T11:59:32.100Z,29.40
2018-06-28T12:02:00.279Z,28.80
2018-06-28T12:04:29.207Z,29.00
2018-06-28T12:06:57.796Z,29.60
2018-06-28T12:09:26.082Z,29.60
2018-06-28T12:11:54.302Z,29.50
2018-06-28T12:19:19.063Z,30.50
2018-06-28T12:21:47.613Z,30.30
2018-06-28T12:24:15.822Z,30.10
2018-06-28T12:26:44.295Z,29.70
2018-06-28T12:29:12.542Z,29.20
2018-06-28T12:31:40.757Z,28.80
2018-06-28T12:34:08.963Z,28.50
2018-06-28T12:36:37.268Z,28.40
2018-06-28T12:39:07.938Z,28.60
2018-06-28T12:41:36.968Z,28.80
2018-06-28T12:44:05.304Z,29.10
2018-06-28T12:47:48.553Z,28.90
2018-06-28T12:50:16.790Z,29.00
2018-06-28T12:52:53.091Z,29.30
2018-06-28T12:55:21.762Z,29.00
2018-06-28T12:57:50.907Z,28.70
2018-06-28T13:00:19.473Z,28.40
2018-06-28T13:02:47.709Z,28.60
2018-06-28T13:05:16.611Z,28.70
2018-06-28T13:07:45.184Z,28.90
2018-06-28T13:10:14.507Z,29.20
2018-06-28T13:12:42.954Z,29.00
2018-06-28T13:15:13.274Z,28.80
2018-06-28T13:17:41.790Z,28.50
2018-06-28T13:20:10.412Z,28.40
2018-06-28T13:22:39.180Z,28.20
2018-06-28T13:25:08.560Z,28.30
2018-06-28T13:27:36.926Z,28.30
2018-06-28T13:30:06.319Z,28.40
2018-06-28T13:32:34.545Z,28.50
2018-06-28T13:35:02.837Z,28.70
2018-06-28T13:37:31.017Z,28.50
2018-06-28T13:39:59.726Z,28.60
2018-06-28T13:42:27.945Z,28.40
2018-06-28T13:44:56.161Z,28.50
2018-06-28T13:47:24.383Z,28.30
2018-06-28T13:49:52.575Z,28.40
2018-06-28T13:52:21.012Z,28.10
2018-06-28T13:54:49.208Z,27.90
2018-06-28T13:57:17.472Z,27.50
2018-06-28T13:59:45.612Z,27.40
2018-06-28T14:02:14.871Z,27.40
2018-06-28T14:04:43.111Z,27.20
2018-06-28T14:07:11.329Z,26.90
2018-06-28T14:09:39.553Z,26.20
2018-06-28T14:12:07.760Z,25.70
2018-06-28T14:14:36.118Z,25.30
2018-06-28T14:17:04.335Z,25.00
2018-06-28T14:19:32.563Z,24.70
2018-06-28T14:22:00.798Z,24.60
2018-06-28T14:24:29.100Z,24.70
2018-06-28T14:26:57.417Z,25.00
2018-06-28T14:29:25.639Z,25.20
2018-06-28T14:31:53.861Z,25.30
2018-06-28T14:34:22.188Z,25.30
2018-06-28T14:36:50.909Z,25.10
2018-06-28T14:39:19.602Z,24.60
2018-06-28T14:41:47.853Z,24.30
2018-06-28T14:44:15.985Z,23.80
2018-06-28T14:46:44.598Z,23.20
2018-06-28T14:49:13.499Z,22.60
2018-06-28T14:51:41.707Z,22.20
2018-06-28T14:54:09.919Z,22.10
2018-06-28T14:56:38.218Z,22.10
2018-06-28T14:59:06.574Z,22.10
2018-06-28T15:01:35.047Z,22.10
2018-06-28T15:04:03.215Z,22.10
2018-06-28T15:06:31.427Z,22.20
2018-06-28T15:08:59.684Z,22.30
2018-06-28T15:11:27.939Z,22.20
2018-06-28T15:13:56.242Z,22.40
2018-06-28T15:16:24.494Z,22.70
2018-06-28T15:18:52.714Z,23.00
2018-06-28T15:21:21.128Z,23.10
2018-06-28T15:23:49.336Z,23.20
2018-06-28T15:28:45.510Z,23.60
2018-06-28T15:31:14.126Z,23.70
2018-06-28T15:33:42.347Z,23.70
2018-06-28T15:36:10.534Z,23.60
2018-06-28T15:38:38.865Z,23.60
2018-06-28T15:41:07.082Z,23.40
2018-06-28T15:43:36.096Z,23.10
2018-06-28T15:46:04.327Z,23.00
2018-06-28T15:48:32.518Z,23.00
2018-06-28T15:51:00.777Z,23.10
2018-06-28T15:53:29.138Z,23.10
2018-06-28T15:55:57.490Z,23.20
2018-06-28T15:58:25.776Z,23.10
2018-06-28T16:00:54.002Z,23.30
2018-06-28T16:05:50.699Z,23.90
2018-06-28T16:08:19.054Z,24.00
2018-06-28T16:10:47.433Z,24.10
2018-06-28T16:13:15.673Z,24.10
2018-06-28T16:15:44.827Z,24.10
2018-06-28T16:18:14.399Z,24.20
2018-06-28T16:20:42.659Z,24.30
2018-06-28T16:23:10.871Z,24.30
2018-06-28T16:25:39.198Z,24.40
2018-06-28T16:28:07.418Z,24.30
2018-06-28T16:30:35.838Z,24.10
2018-06-28T16:33:04.257Z,24.20
2018-06-28T16:35:32.528Z,24.20
2018-06-28T16:38:00.718Z,24.10
2018-06-28T16:40:29.011Z,24.00
2018-06-28T16:42:57.449Z,24.00
2018-06-28T16:45:25.693Z,23.90
2018-06-28T16:47:53.889Z,23.80
2018-06-28T16:50:22.111Z,23.90
2018-06-28T16:52:50.482Z,23.90
2018-06-28T16:55:18.697Z,23.90
2018-06-28T16:57:46.990Z,23.70
2018-06-28T17:00:15.188Z,23.60
2018-06-28T17:02:43.911Z,23.50
2018-06-28T17:05:12.274Z,23.50
2018-06-28T17:07:40.570Z,23.50
2018-06-28T17:10:08.762Z,23.40
2018-06-28T17:12:37.243Z,23.30
2018-06-28T17:15:05.868Z,23.20
2018-06-28T17:17:34.513Z,23.20
2018-06-28T17:20:02.751Z,23.20
2018-06-28T17:22:31.460Z,23.00
2018-06-28T17:24:59.971Z,23.00
2018-06-28T17:27:31.591Z,22.80
2018-06-28T17:29:59.876Z,22.90
2018-06-28T17:32:28.944Z,22.80
2018-06-28T17:34:57.723Z,22.70
2018-06-28T17:37:25.971Z,22.50
2018-06-28T17:39:54.164Z,22.30
2018-06-28T17:42:22.420Z,22.00
2018-06-28T17:44:50.764Z,22.10
2018-06-28T17:47:18.958Z,22.00
2018-06-28T17:49:47.180Z,21.70
2018-06-28T17:52:15.548Z,21.70
2018-06-28T17:54:45.375Z,21.70
2018-06-28T17:57:13.719Z,21.60
2018-06-28T17:59:41.974Z,21.50
2018-06-28T18:02:10.154Z,21.50
2018-06-28T18:04:38.460Z,21.50
2018-06-28T18:07:07.475Z,21.50
2018-06-28T18:09:35.761Z,21.60
2018-06-28T18:14:31.986Z,21.70
2018-06-28T18:17:00.216Z,21.80
2018-06-28T18:19:29.082Z,21.60
2018-06-28T18:21:57.521Z,21.60
2018-06-28T18:24:25.914Z,21.60
2018-06-28T18:26:54.186Z,21.60
2018-06-28T18:29:36.741Z,21.70
2018-06-28T18:32:05.183Z,21.70
2018-06-28T18:34:33.515Z,21.60
2018-06-28T18:37:01.804Z,21.50
2018-06-28T18:39:30.034Z,21.40
2018-06-28T18:41:58.609Z,21.40
2018-06-28T18:44:27.200Z,21.30
2018-06-28T18:46:55.461Z,21.40
2018-06-28T18:49:23.670Z,21.40
2018-06-28T18:51:52.908Z,21.40
2018-06-28T18:54:21.196Z,21.30
2018-06-28T18:56:49.551Z,21.20
2018-06-28T18:59:17.838Z,21.20
2018-06-28T19:01:46.126Z,21.50
2018-06-28T19:04:14.351Z,21.40
2018-06-28T19:06:42.735Z,21.40
2018-06-28T19:09:12.368Z,21.50
2018-06-28T19:11:40.571Z,21.50
2018-06-28T19:14:14.371Z,21.60
2018-06-28T19:16:47.937Z,21.60
2018-06-28T19:19:16.139Z,21.60
2018-06-28T19:21:50.284Z,21.70
2018-06-28T19:24:18.484Z,21.70
2018-06-28T19:26:46.687Z,21.70
2018-06-28T19:29:20.487Z,21.80
2018-06-28T19:31:54.241Z,21.90
2018-06-28T19:34:22.542Z,21.70
2018-06-28T19:36:50.938Z,21.70
2018-06-28T19:39:24.409Z,21.70
2018-06-28T19:41:58.058Z,21.70
2018-06-28T19:44:26.291Z,21.50
2018-06-28T19:46:54.504Z,21.50
2018-06-28T19:49:28.091Z,21.40
2018-06-28T19:52:01.970Z,21.30
2018-06-28T19:54:30.247Z,21.40
2018-06-28T19:56:58.751Z,21.30
2018-06-28T19:59:27.299Z,21.20
2018-06-28T20:02:00.802Z,21.30
2018-06-28T20:04:34.638Z,21.40
2018-06-28T20:07:02.868Z,21.60
2018-06-28T20:09:31.062Z,21.60
2018-06-28T20:11:59.905Z,21.70
2018-06-28T20:17:06.922Z,21.80
2018-06-28T20:19:40.562Z,21.80
2018-06-28T20:22:08.855Z,21.80
2018-06-28T20:24:37.233Z,21.70
2018-06-28T20:27:10.775Z,21.80
2018-06-28T20:32:17.932Z,22.00
2018-06-28T20:34:46.151Z,22.10
2018-06-28T20:37:14.426Z,22.10
2018-06-28T20:39:43.570Z,22.20
2018-06-28T20:42:12.677Z,22.20
2018-06-28T20:44:40.897Z,22.10
2018-06-28T20:47:09.119Z,21.90
2018-06-28T20:49:37.384Z,22.00
2018-06-28T20:52:05.826Z,21.90
2018-06-28T20:54:34.047Z,21.90
2018-06-28T20:57:02.270Z,22.00
2018-06-28T20:59:30.506Z,21.90
2018-06-28T21:01:58.807Z,21.90
2018-06-28T21:04:27.083Z,21.80
2018-06-28T21:06:55.344Z,21.60
2018-06-28T21:09:23.883Z,21.70
2018-06-28T21:11:52.952Z,21.60
2018-06-28T21:14:21.326Z,21.70
2018-06-28T21:16:49.671Z,21.60
2018-06-28T21:19:18.962Z,21.50
2018-06-28T21:21:47.292Z,21.70
2018-06-28T21:26:43.546Z,21.70
2018-06-28T21:29:12.248Z,21.80
2018-06-28T21:31:40.455Z,21.80
2018-06-28T21:34:08.791Z,21.70
2018-06-28T21:36:37.316Z,21.80
2018-06-28T21:39:08.351Z,21.80
2018-06-28T21:41:36.797Z,21.80
2018-06-28T21:44:05.120Z,21.80
2018-06-28T21:46:33.722Z,21.80
2018-06-28T21:49:02.973Z,21.90
2018-06-28T21:51:32.425Z,21.90
2018-06-28T21:54:00.717Z,21.90
2018-06-28T21:56:29.192Z,22.00
2018-06-28T21:58:57.594Z,22.00
2018-06-28T22:01:25.846Z,21.90
2018-06-28T22:03:54.220Z,21.90
2018-06-28T22:06:22.665Z,22.00
2018-06-28T22:08:51.081Z,22.00
2018-06-28T22:11:19.440Z,22.10
2018-06-28T22:13:47.848Z,22.10
2018-06-28T22:16:16.058Z,22.00
2018-06-28T22:18:44.464Z,22.00
2018-06-28T22:21:12.702Z,22.00
2018-06-28T22:23:41.016Z,22.10
2018-06-28T22:26:09.356Z,22.20
2018-06-28T22:28:37.569Z,22.10
2018-06-28T22:31:06.798Z,22.10
2018-06-28T22:33:35.022Z,22.10
2018-06-28T22:36:03.231Z,22.10
2018-06-28T22:38:31.444Z,22.10
2018-06-28T22:41:00.236Z,22.10
2018-06-28T22:43:28.869Z,22.10
2018-06-28T22:45:57.128Z,22.10
2018-06-28T22:48:25.331Z,22.00
2018-06-28T22:50:53.949Z,22.10
2018-06-28T22:53:22.870Z,22.20
2018-06-28T22:55:51.662Z,22.20
2018-06-28T22:58:20.068Z,22.20
2018-06-28T23:00:48.315Z,22.20
2018-06-28T23:03:16.687Z,22.10
2018-06-28T23:05:45.108Z,22.10
2018-06-28T23:08:13.517Z,22.20
2018-06-28T23:10:41.967Z,22.20
2018-06-28T23:13:10.554Z,22.10
2018-06-28T23:15:39.783Z,22.10
2018-06-28T23:18:08.295Z,22.20
2018-06-28T23:20:37.471Z,22.20
2018-06-28T23:23:06.154Z,22.20
2018-06-28T23:25:34.464Z,22.10
2018-06-28T23:28:02.743Z,22.10
2018-06-28T23:30:31.052Z,22.20
2018-06-28T23:32:59.368Z,22.20
2018-06-28T23:35:27.940Z,22.10
2018-06-28T23:37:56.315Z,22.10
2018-06-28T23:40:24.803Z,22.10
2018-06-28T23:42:53.392Z,22.00
2018-06-28T23:45:22.124Z,22.00
2018-06-28T23:47:50.857Z,21.90
2018-06-28T23:50:19.968Z,21.80
2018-06-28T23:52:48.417Z,21.80
2018-06-28T23:55:16.659Z,21.80
2018-06-28T23:57:45.179Z,21.80
